createdAt,value
2018-10-12T00:00:59.443Z,15.32
2018-10-12T00:03:27.812Z,15.34
2018-10-12T00:05:56.198Z,15.31
2018-10-12T00:08:24.596Z,15.25
2018-10-12T00:10:52.954Z,15.34
2018-10-12T00:13:21.308Z,15.28
2018-10-12T00:15:49.696Z,15.35
2018-10-12T00:18:18.100Z,15.33
2018-10-12T00:20:46.460Z,15.32
2018-10-12T00:23:15.456Z,15.25
2018-10-12T00:25:43.787Z,15.21
2018-10-12T00:28:12.171Z,15.23
2018-10-12T00:30:40.500Z,15.23
2018-10-12T00:33:08.832Z,15.29
2018-10-12T00:35:37.340Z,15.17
2018-10-12T00:38:05.820Z,15.13
2018-10-12T00:40:35.044Z,15.09
2018-10-12T00:43:03.417Z,15.07
2018-10-12T00:45:31.767Z,15.08
2018-10-12T00:48:01.895Z,15.03
2018-10-12T00:50:31.733Z,15.07
2018-10-12T00:53:00.513Z,15.07
2018-10-12T00:55:32.018Z,15.02
2018-10-12T00:58:00.441Z,15.00
2018-10-12T01:00:28.837Z,14.97
2018-10-12T01:02:57.828Z,14.92
2018-10-12T01:05:26.513Z,14.99
2018-10-12T01:07:54.884Z,14.94
2018-10-12T01:10:23.256Z,14.93
2018-10-12T01:12:51.669Z,14.88
2018-10-12T01:15:20.054Z,14.94
2018-10-12T01:17:48.456Z,14.94
2018-10-12T01:20:16.873Z,14.89
2018-10-12T01:22:45.242Z,14.92
2018-10-12T01:25:13.673Z,14.95
2018-10-12T01:27:43.105Z,15.00
2018-10-12T01:30:11.492Z,15.01
2018-10-12T01:32:45.138Z,14.97
2018-10-12T01:35:13.509Z,15.21
2018-10-12T01:37:41.933Z,15.02
2018-10-12T01:40:10.347Z,14.94
2018-10-12T01:42:38.752Z,15.04
2018-10-12T01:45:08.206Z,15.02
2018-10-12T01:47:36.705Z,15.03
2018-10-12T01:50:05.085Z,15.02
2018-10-12T01:52:33.482Z,15.10
2018-10-12T01:55:01.847Z,15.13
2018-10-12T01:57:30.233Z,15.27
2018-10-12T01:59:58.593Z,15.29
2018-10-12T02:02:26.960Z,15.27
2018-10-12T02:04:55.327Z,15.30
2018-10-12T02:07:23.713Z,15.33
2018-10-12T02:09:52.169Z,15.40
2018-10-12T02:12:21.633Z,15.39
2018-10-12T02:14:50.053Z,15.40
2018-10-12T02:17:20.492Z,15.40
2018-10-12T02:19:48.850Z,15.32
2018-10-12T02:22:17.257Z,15.44
2018-10-12T02:24:45.625Z,15.41
2018-10-12T02:27:14.001Z,15.36
2018-10-12T02:29:42.377Z,15.37
2018-10-12T02:32:10.757Z,15.36
2018-10-12T02:34:39.109Z,15.25
2018-10-12T02:37:08.509Z,15.40
2018-10-12T02:39:36.848Z,15.28
2018-10-12T02:42:06.660Z,15.28
2018-10-12T02:44:35.128Z,15.27
2018-10-12T02:47:04.532Z,15.23
2018-10-12T02:49:32.900Z,15.19
2018-10-12T02:52:01.264Z,15.26
2018-10-12T02:54:29.643Z,15.18
2018-10-12T02:56:58.024Z,15.16
2018-10-12T02:59:26.481Z,15.10
2018-10-12T03:01:54.948Z,15.03
2018-10-12T03:04:23.391Z,15.08
2018-10-12T03:06:51.945Z,15.09
2018-10-12T03:09:20.313Z,15.04
2018-10-12T03:11:48.698Z,14.94
2018-10-12T03:14:17.065Z,14.89
2018-10-12T03:16:45.441Z,14.92
2018-10-12T03:19:13.798Z,14.88
2018-10-12T03:21:42.148Z,14.91
2018-10-12T03:24:10.524Z,14.93
2018-10-12T03:26:38.877Z,14.96
2018-10-12T03:29:07.317Z,14.94
2018-10-12T03:31:36.801Z,14.90
2018-10-12T03:34:05.205Z,14.86
2018-10-12T03:36:33.592Z,14.86
2018-10-12T03:39:02.012Z,14.80
2018-10-12T03:41:30.532Z,14.74
2018-10-12T03:43:58.972Z,14.76
2018-10-12T03:46:27.353Z,14.81
2018-10-12T03:48:55.741Z,14.88
2018-10-12T03:51:24.193Z,14.74
2018-10-12T03:53:52.568Z,14.64
2018-10-12T03:56:21.953Z,14.65
2018-10-12T03:58:50.357Z,14.59
2018-10-12T04:01:18.708Z,14.51
2018-10-12T04:03:47.076Z,14.44
2018-10-12T04:06:15.425Z,14.41
2018-10-12T04:08:43.800Z,14.47
2018-10-12T04:11:12.157Z,14.39
2018-10-12T04:13:40.524Z,14.43
2018-10-12T04:16:08.908Z,14.39
2018-10-12T04:18:37.265Z,14.38
2018-10-12T04:21:05.664Z,14.39
2018-10-12T04:23:34.059Z,14.35
2018-10-12T04:26:02.428Z,14.26
2018-10-12T04:28:30.789Z,14.36
2018-10-12T04:30:59.131Z,14.35
2018-10-12T04:33:27.650Z,14.38
2018-10-12T04:35:56.111Z,14.35
2018-10-12T04:38:25.529Z,14.32
2018-10-12T04:41:03.977Z,14.30
2018-10-12T04:43:33.025Z,14.32
2018-10-12T04:46:02.901Z,14.25
2018-10-12T04:48:31.661Z,14.21
2018-10-12T04:51:00.582Z,14.21
2018-10-12T04:53:30.043Z,14.24
2018-10-12T04:55:58.572Z,14.10
2018-10-12T04:58:27.149Z,14.19
2018-10-12T05:00:56.675Z,14.14
2018-10-12T05:03:25.060Z,14.18
2018-10-12T05:05:54.411Z,14.17
2018-10-12T05:08:22.896Z,14.40
2018-10-12T05:10:52.284Z,14.27
2018-10-12T05:13:20.652Z,14.07
2018-10-12T05:15:49.333Z,14.10
2018-10-12T05:18:17.707Z,14.11
2018-10-12T05:20:46.080Z,14.14
2018-10-12T05:23:14.672Z,14.23
2018-10-12T05:25:43.532Z,14.21
2018-10-12T05:28:12.317Z,14.09
2018-10-12T05:30:40.781Z,14.09
2018-10-12T05:33:09.154Z,14.17
2018-10-12T05:35:37.530Z,14.13
2018-10-12T05:38:05.964Z,14.15
2018-10-12T05:40:35.417Z,14.16
2018-10-12T05:43:03.836Z,14.08
2018-10-12T05:45:32.193Z,14.18
2018-10-12T05:48:13.008Z,14.05
2018-10-12T05:50:41.464Z,14.02
2018-10-12T05:53:10.893Z,14.02
2018-10-12T05:55:39.363Z,13.99
2018-10-12T05:58:07.709Z,13.99
2018-10-12T06:00:36.101Z,14.10
2018-10-12T06:03:07.345Z,14.18
2018-10-12T06:05:35.884Z,14.14
2018-10-12T06:08:04.323Z,14.15
2018-10-12T06:10:33.704Z,14.06
2018-10-12T06:13:02.141Z,14.16
2018-10-12T06:15:30.549Z,14.24
2018-10-12T06:17:59.345Z,14.28
2018-10-12T06:20:27.724Z,14.24
2018-10-12T06:22:56.128Z,14.33
2018-10-12T06:25:24.535Z,14.48
2018-10-12T06:27:52.954Z,14.57
2018-10-12T06:30:21.361Z,14.59
2018-10-12T06:32:49.755Z,14.70
2018-10-12T06:35:18.164Z,14.72
2018-10-12T06:37:46.566Z,14.84
2018-10-12T06:40:14.929Z,14.88
2018-10-12T06:42:43.729Z,14.82
2018-10-12T06:45:12.151Z,15.03
2018-10-12T06:47:40.524Z,15.06
2018-10-12T06:50:08.953Z,15.19
2018-10-12T06:52:37.834Z,15.30
2018-10-12T06:55:07.876Z,15.28
2018-10-12T06:57:36.285Z,15.26
2018-10-12T07:00:05.524Z,15.39
2018-10-12T07:02:33.861Z,15.49
2018-10-12T07:05:03.270Z,15.71
2018-10-12T07:07:31.690Z,15.94
2018-10-12T07:10:01.148Z,15.96
2018-10-12T07:12:29.533Z,16.05
2018-10-12T07:14:57.939Z,16.14
2018-10-12T07:17:26.301Z,16.21
2018-10-12T07:19:54.658Z,16.47
2018-10-12T07:22:23.080Z,16.57
2018-10-12T07:24:51.447Z,16.77
2018-10-12T07:27:19.861Z,16.73
2018-10-12T07:29:48.208Z,16.70
2018-10-12T07:32:16.576Z,16.81
2018-10-12T07:34:44.924Z,17.05
2018-10-12T07:37:13.347Z,17.21
2018-10-12T07:39:41.669Z,17.28
2018-10-12T07:42:11.149Z,17.19
2018-10-12T07:44:39.468Z,17.35
2018-10-12T07:47:07.851Z,17.45
2018-10-12T07:49:37.225Z,17.58
2018-10-12T07:52:05.698Z,17.66
2018-10-12T07:54:34.101Z,17.80
2018-10-12T07:57:07.781Z,17.73
2018-10-12T07:59:36.348Z,17.90
2018-10-12T08:02:04.824Z,17.90
2018-10-12T08:04:33.237Z,18.06
2018-10-12T08:07:01.697Z,18.30
2018-10-12T08:09:30.100Z,18.53
2018-10-12T08:11:58.497Z,18.63
2018-10-12T08:14:27.864Z,18.58
2018-10-12T08:16:56.268Z,18.49
2018-10-12T08:19:24.676Z,18.67
2018-10-12T08:21:53.054Z,18.85
2018-10-12T08:24:21.430Z,18.90
2018-10-12T08:26:49.893Z,19.03
2018-10-12T08:29:18.197Z,18.77
2018-10-12T08:31:46.597Z,18.86
2018-10-12T08:34:15.168Z,19.05
2018-10-12T08:36:43.700Z,19.26
2018-10-12T08:39:13.205Z,19.41
2018-10-12T08:41:41.741Z,19.52
2018-10-12T08:44:11.436Z,19.66
2018-10-12T08:46:39.848Z,19.86
2018-10-12T08:49:09.220Z,19.66
2018-10-12T08:51:37.572Z,19.95
2018-10-12T08:54:06.066Z,20.04
2018-10-12T08:56:34.607Z,20.26
2018-10-12T08:59:03.032Z,20.14
2018-10-12T09:01:31.456Z,20.10
2018-10-12T09:04:00.852Z,20.16
2018-10-12T09:06:29.297Z,20.24
2018-10-12T09:08:57.651Z,20.33
2018-10-12T09:11:26.056Z,20.41
2018-10-12T09:13:55.515Z,20.56
2018-10-12T09:16:24.102Z,20.78
2018-10-12T09:18:52.389Z,20.90
2018-10-12T09:21:20.768Z,20.58
2018-10-12T09:23:49.244Z,20.75
2018-10-12T09:26:17.604Z,20.88
2018-10-12T09:28:45.981Z,20.97
2018-10-12T09:31:14.408Z,20.98
2018-10-12T09:33:42.775Z,21.15
2018-10-12T09:36:11.147Z,20.75
2018-10-12T09:38:39.494Z,20.89
2018-10-12T09:41:07.856Z,20.94
2018-10-12T09:43:36.327Z,21.25
2018-10-12T09:46:09.172Z,20.96
2018-10-12T09:48:37.577Z,21.28
2018-10-12T09:51:05.980Z,21.37
2018-10-12T09:53:34.333Z,21.39
2018-10-12T09:56:02.788Z,21.53
2018-10-12T09:58:31.328Z,21.83
2018-10-12T10:01:05.920Z,21.64
2018-10-12T10:03:39.660Z,21.66
2018-10-12T10:06:08.112Z,21.85
2018-10-12T10:08:36.676Z,21.88
2018-10-12T10:11:05.012Z,21.95
2018-10-12T10:13:34.433Z,22.16
2018-10-12T10:16:02.795Z,21.77
2018-10-12T10:18:31.143Z,21.93
2018-10-12T10:20:59.592Z,21.81
2018-10-12T10:23:27.965Z,21.63
2018-10-12T10:25:56.328Z,21.99
2018-10-12T10:28:24.820Z,21.69
2018-10-12T10:30:53.184Z,21.36
2018-10-12T10:33:21.520Z,21.59
2018-10-12T10:35:49.872Z,21.76
2018-10-12T10:38:18.252Z,21.75
2018-10-12T10:40:46.796Z,21.50
2018-10-12T10:43:15.140Z,21.81
2018-10-12T10:45:43.608Z,21.97
2018-10-12T10:48:13.089Z,21.92
2018-10-12T10:50:41.468Z,21.96
2018-10-12T10:53:09.840Z,21.74
2018-10-12T10:55:38.255Z,21.92
2018-10-12T10:58:07.083Z,22.23
2018-10-12T11:00:35.504Z,22.33
2018-10-12T11:03:04.668Z,22.49
2018-10-12T11:05:33.039Z,22.42
2018-10-12T11:08:02.430Z,22.27
2018-10-12T11:10:30.785Z,22.38
2018-10-12T11:12:59.189Z,22.65
2018-10-12T11:15:31.196Z,22.62
2018-10-12T11:17:59.549Z,22.34
2018-10-12T11:20:27.903Z,22.49
2018-10-12T11:22:56.424Z,22.31
2018-10-12T11:25:24.776Z,22.61
2018-10-12T11:27:53.154Z,21.96
2018-10-12T11:30:21.506Z,22.19
2018-10-12T11:32:49.978Z,22.59
2018-10-12T11:35:19.313Z,22.79
2018-10-12T11:37:47.788Z,22.66
2018-10-12T11:40:17.157Z,22.57
2018-10-12T11:42:56.821Z,22.44
2018-10-12T11:45:26.257Z,22.58
2018-10-12T11:47:54.609Z,22.86
2018-10-12T11:50:23.150Z,22.83
2018-10-12T11:52:52.460Z,23.06
2018-10-12T11:55:20.817Z,22.88
2018-10-12T11:57:49.157Z,22.93
2018-10-12T12:00:17.609Z,22.98
2018-10-12T12:02:46.581Z,22.97
2018-10-12T12:05:14.950Z,23.24
2018-10-12T12:07:43.338Z,23.32
2018-10-12T12:10:11.756Z,23.27
2018-10-12T12:12:40.125Z,23.14
2018-10-12T12:15:08.488Z,23.17
2018-10-12T12:17:36.860Z,23.31
2018-10-12T12:20:05.244Z,23.21
2018-10-12T12:22:33.604Z,23.47
2018-10-12T12:25:02.053Z,23.37
2018-10-12T12:27:30.421Z,23.37
2018-10-12T12:29:58.780Z,23.67
2018-10-12T12:32:27.136Z,23.32
2018-10-12T12:34:55.581Z,23.73
2018-10-12T12:37:23.880Z,23.74
2018-10-12T12:39:52.913Z,23.59
2018-10-12T12:42:21.324Z,23.45
2018-10-12T12:44:52.711Z,23.47
2018-10-12T12:47:21.198Z,23.43
2018-10-12T12:49:49.857Z,23.23
2018-10-12T12:52:18.230Z,23.55
2018-10-12T12:54:47.704Z,23.46
2018-10-12T12:57:16.057Z,23.72
2018-10-12T12:59:44.394Z,23.81
2018-10-12T13:02:12.756Z,23.80
2018-10-12T13:04:41.120Z,23.54
2018-10-12T13:07:10.456Z,24.14
2018-10-12T13:09:38.923Z,25.20
2018-10-12T13:12:07.307Z,25.86
2018-10-12T13:14:36.806Z,27.41
2018-10-12T13:17:05.151Z,26.12
2018-10-12T13:23:05.137Z,24.38
2018-10-12T13:25:33.531Z,24.41
2018-10-12T13:28:01.877Z,24.31
2018-10-12T13:30:31.328Z,24.22
2018-10-12T13:32:59.721Z,24.22
2018-10-12T13:35:28.089Z,24.17
2018-10-12T13:37:56.489Z,24.08
2018-10-12T13:40:24.885Z,24.10
2018-10-12T13:42:54.281Z,24.01
2018-10-12T13:45:22.885Z,23.87
2018-10-12T13:47:51.303Z,24.01
2018-10-12T13:50:19.721Z,24.06
2018-10-12T13:52:48.133Z,24.09
2018-10-12T13:55:16.590Z,24.21
2018-10-12T13:57:44.956Z,24.02
2018-10-12T14:00:13.384Z,24.00
2018-10-12T14:02:41.713Z,23.99
2018-10-12T14:05:10.084Z,24.06
2018-10-12T14:07:38.484Z,24.01
2018-10-12T14:10:06.893Z,23.93
2018-10-12T14:12:35.242Z,23.83
2018-10-12T14:15:03.650Z,24.11
2018-10-12T14:17:32.008Z,24.42
2018-10-12T14:20:00.476Z,24.38
2018-10-12T14:22:29.997Z,24.35
2018-10-12T14:24:58.369Z,24.27
2018-10-12T14:27:26.759Z,24.29
2018-10-12T14:29:55.128Z,24.54
2018-10-12T14:32:24.581Z,24.43
2018-10-12T14:34:53.996Z,24.54
2018-10-12T14:37:22.393Z,24.34
2018-10-12T14:39:50.781Z,24.21
2018-10-12T14:42:19.133Z,24.45
2018-10-12T14:44:47.504Z,24.50
2018-10-12T14:47:16.017Z,24.78
2018-10-12T14:49:44.392Z,25.33
2018-10-12T14:52:12.753Z,26.05
2018-10-12T14:54:41.121Z,26.13
2018-10-12T14:57:14.562Z,26.02
2018-10-12T14:59:42.949Z,26.09
2018-10-12T15:02:11.284Z,25.96
2018-10-12T15:04:39.655Z,25.71
2018-10-12T15:07:08.053Z,25.67
2018-10-12T15:09:36.496Z,25.32
2018-10-12T15:12:04.858Z,25.85
2018-10-12T15:14:44.104Z,26.96
2018-10-12T15:17:12.483Z,29.10
2018-10-12T15:19:41.359Z,30.89
2018-10-12T15:22:09.772Z,33.12
2018-10-12T15:24:38.141Z,33.40
2018-10-12T15:27:07.762Z,34.12
2018-10-12T15:29:36.671Z,33.98
2018-10-12T15:32:06.386Z,31.87
2018-10-12T15:34:34.699Z,29.06
2018-10-12T15:37:03.075Z,27.43
2018-10-12T15:39:32.526Z,26.15
2018-10-12T15:42:00.950Z,25.55
2018-10-12T15:44:29.736Z,24.97
2018-10-12T15:46:58.145Z,24.47
2018-10-12T15:49:26.513Z,24.07
2018-10-12T15:51:54.895Z,23.67
2018-10-12T15:54:23.236Z,23.45
2018-10-12T15:56:51.746Z,23.28
2018-10-12T15:59:20.126Z,23.19
2018-10-12T16:01:48.509Z,22.91
2018-10-12T16:04:16.876Z,22.72
2018-10-12T16:06:45.372Z,22.64
2018-10-12T16:09:13.779Z,22.48
2018-10-12T16:16:40.199Z,22.01
2018-10-12T16:19:08.604Z,21.87
2018-10-12T16:21:36.960Z,21.73
2018-10-12T16:24:10.180Z,21.69
2018-10-12T16:26:39.540Z,21.60
2018-10-12T16:29:07.982Z,21.48
2018-10-12T16:31:36.298Z,21.35
2018-10-12T16:34:05.982Z,21.23
2018-10-12T16:36:34.270Z,21.14
2018-10-12T16:39:02.633Z,21.06
2018-10-12T16:41:30.948Z,20.95
2018-10-12T16:43:59.234Z,20.87
2018-10-12T16:46:27.733Z,20.81
2018-10-12T16:48:56.136Z,20.72
2018-10-12T16:51:24.500Z,20.61
2018-10-12T16:53:52.863Z,20.56
2018-10-12T16:56:21.212Z,20.42
2018-10-12T16:58:49.492Z,20.36
2018-10-12T17:01:17.794Z,20.25
2018-10-12T17:03:46.205Z,20.19
2018-10-12T17:06:14.627Z,20.17
2018-10-12T17:08:43.036Z,20.08
2018-10-12T17:11:11.363Z,20.07
2018-10-12T17:13:39.701Z,20.02
2018-10-12T17:16:08.068Z,20.00
2018-10-12T17:18:36.388Z,20.01
2018-10-12T17:21:04.752Z,20.00
2018-10-12T17:23:33.128Z,19.91
2018-10-12T17:26:01.643Z,19.85
2018-10-12T17:28:30.081Z,19.87
2018-10-12T17:30:58.452Z,19.84
2018-10-12T17:33:26.780Z,19.80
2018-10-12T17:35:55.223Z,19.73
2018-10-12T17:38:23.614Z,19.70
2018-10-12T17:40:51.981Z,19.72
2018-10-12T17:43:20.474Z,19.73
2018-10-12T17:45:48.860Z,19.72
2018-10-12T17:48:17.232Z,19.67
2018-10-12T17:50:45.593Z,19.66
2018-10-12T17:53:13.980Z,19.60
2018-10-12T17:55:42.333Z,19.58
2018-10-12T17:58:10.689Z,19.51
2018-10-12T18:00:39.102Z,19.44
2018-10-12T18:03:07.470Z,19.49
2018-10-12T18:05:35.808Z,19.43
2018-10-12T18:08:04.272Z,19.44
2018-10-12T18:10:32.668Z,19.39
2018-10-12T18:13:01.013Z,19.39
2018-10-12T18:15:30.505Z,19.36
2018-10-12T18:17:58.902Z,19.38
2018-10-12T18:20:28.353Z,19.34
2018-10-12T18:22:56.862Z,19.32
2018-10-12T18:25:25.217Z,19.30
2018-10-12T18:27:53.558Z,19.27
2018-10-12T18:30:22.369Z,19.22
2018-10-12T18:32:50.728Z,19.20
2018-10-12T18:35:19.101Z,19.17
2018-10-12T18:37:47.471Z,19.15
2018-10-12T18:40:15.830Z,19.14
2018-10-12T18:42:44.184Z,19.10
2018-10-12T18:45:12.542Z,19.11
2018-10-12T18:47:40.965Z,19.12
2018-10-12T18:50:09.308Z,19.08
2018-10-12T18:52:37.712Z,19.02
2018-10-12T18:55:06.068Z,19.00
2018-10-12T18:57:35.435Z,18.99
2018-10-12T19:00:05.934Z,18.93
2018-10-12T19:02:35.588Z,18.96
2018-10-12T19:05:04.136Z,18.94
2018-10-12T19:07:32.459Z,18.89
2018-10-12T19:10:01.016Z,18.89
2018-10-12T19:12:29.376Z,18.85
2018-10-12T19:14:57.729Z,18.86
2018-10-12T19:17:26.108Z,18.83
2018-10-12T19:19:54.537Z,18.80
2018-10-12T19:22:22.908Z,18.85
2018-10-12T19:24:51.296Z,18.85
2018-10-12T19:27:20.681Z,18.78
2018-10-12T19:29:49.045Z,18.73
2018-10-12T19:32:17.477Z,18.68
2018-10-12T19:34:45.848Z,18.73
2018-10-12T19:37:14.210Z,18.71
2018-10-12T19:39:42.657Z,18.68
2018-10-12T19:42:11.081Z,18.67
2018-10-12T19:44:39.465Z,18.61
2018-10-12T19:47:07.845Z,18.64
2018-10-12T19:49:36.233Z,18.66
2018-10-12T19:52:04.637Z,18.63
2018-10-12T19:54:33.075Z,18.65
2018-10-12T19:57:01.425Z,18.60
2018-10-12T19:59:29.893Z,18.67
2018-10-12T20:01:58.245Z,18.74
2018-10-12T20:04:26.622Z,18.71
2018-10-12T20:06:54.978Z,18.70
2018-10-12T20:09:23.685Z,18.67
2018-10-12T20:11:52.073Z,18.62
2018-10-12T20:14:20.448Z,18.63
2018-10-12T20:16:48.800Z,18.67
2018-10-12T20:19:17.164Z,18.65
2018-10-12T20:21:45.516Z,18.65
2018-10-12T20:24:13.855Z,18.63
2018-10-12T20:26:42.232Z,18.64
2018-10-12T20:29:10.609Z,18.64
2018-10-12T20:31:39.050Z,18.68
2018-10-12T20:34:07.324Z,18.65
2018-10-12T20:36:35.676Z,18.65
2018-10-12T20:39:05.308Z,18.59
2018-10-12T20:41:33.744Z,18.58
2018-10-12T20:44:02.116Z,18.66
2018-10-12T20:46:30.507Z,18.56
2018-10-12T20:48:58.860Z,18.50
2018-10-12T20:51:27.232Z,18.52
2018-10-12T20:53:55.578Z,18.32
2018-10-12T20:56:24.041Z,18.32
2018-10-12T20:58:52.430Z,18.32
2018-10-12T21:01:20.872Z,18.48
2018-10-12T21:03:49.275Z,18.39
2018-10-12T21:06:17.589Z,18.37
2018-10-12T21:08:45.944Z,18.43
2018-10-12T21:11:14.341Z,18.48
2018-10-12T21:13:42.688Z,18.52
2018-10-12T21:16:11.049Z,18.54
2018-10-12T21:18:39.419Z,18.53
2018-10-12T21:21:07.842Z,18.56
2018-10-12T21:23:36.209Z,18.55
2018-10-12T21:26:05.640Z,18.79
2018-10-12T21:28:34.064Z,18.63
2018-10-12T21:31:02.568Z,18.60
2018-10-12T21:33:30.928Z,18.67
2018-10-12T21:35:59.296Z,18.57
2018-10-12T21:38:27.640Z,18.63
2018-10-12T21:40:56.018Z,18.66
2018-10-12T21:43:24.372Z,18.74
2018-10-12T21:45:52.781Z,18.71
2018-10-12T21:48:21.169Z,18.79
2018-10-12T21:50:49.874Z,18.89
2018-10-12T21:53:19.584Z,18.98
2018-10-12T21:55:48.269Z,19.02
2018-10-12T21:58:16.638Z,18.92
2018-10-12T22:00:49.161Z,18.96
2018-10-12T22:03:18.597Z,18.88
2018-10-12T22:05:46.964Z,18.92
2018-10-12T22:08:20.438Z,19.03
2018-10-12T22:10:48.965Z,19.05
2018-10-12T22:13:18.370Z,19.05
2018-10-12T22:15:46.752Z,19.10
2018-10-12T22:18:15.236Z,19.03
2018-10-12T22:20:46.077Z,19.05
2018-10-12T22:23:14.466Z,19.08
2018-10-12T22:25:42.911Z,19.15
2018-10-12T22:28:11.708Z,19.13
2018-10-12T22:30:40.562Z,19.18
2018-10-12T22:33:10.759Z,19.13
2018-10-12T22:35:41.222Z,19.22
2018-10-12T22:38:10.323Z,19.27
2018-10-12T22:40:40.895Z,19.24
2018-10-12T22:43:10.761Z,19.23
2018-10-12T22:45:42.454Z,19.26
2018-10-12T22:48:11.597Z,19.13
2018-10-12T22:50:40.639Z,19.03
2018-10-12T22:53:09.945Z,18.95
2018-10-12T22:55:39.889Z,18.96
2018-10-12T22:58:08.508Z,18.87
2018-10-12T23:00:38.991Z,18.92
2018-10-12T23:03:07.368Z,18.88
2018-10-12T23:05:35.836Z,18.78
2018-10-12T23:08:04.299Z,18.73
2018-10-12T23:10:32.681Z,18.78
2018-10-12T23:13:01.142Z,18.75
2018-10-12T23:15:30.581Z,18.74
2018-10-12T23:17:58.928Z,18.75
2018-10-12T23:20:27.276Z,18.67
2018-10-12T23:22:55.721Z,18.72
2018-10-12T23:25:24.074Z,18.62
2018-10-12T23:27:53.452Z,18.49
2018-10-12T23:30:21.841Z,18.49
2018-10-12T23:32:50.212Z,18.51
2018-10-12T23:42:25.681Z,18.31
2018-10-12T23:44:54.034Z,18.62
2018-10-12T23:47:22.440Z,18.44
2018-10-12T23:49:50.788Z,18.49
2018-10-12T23:52:19.159Z,18.47
2018-10-12T23:54:47.776Z,18.32
2018-10-12T23:57:16.145Z,18.37
2018-10-12T23:59:44.612Z,18.51
